Data for 10/03/2006

Time Sea-Level Adjusted Pressure Absolute Pressure Temperature Relative Humidity Dew Point   
(mb) (inHg) (mb) (inHg) (C) (F) (%) (C) (F)
00:05 1018 30.06 847 25.01 9 48.1 80 5.7 42.3
00:10 1018 30.06 848 25.04 9 48.1 81 5.8 42.4
00:15 1018 30.06 848 25.04 8.9 48 82 6 42.8
00:20 1019 30.09 848 25.04 8.8 47.8 82 5.9 42.6
00:25 1019 30.09 848 25.04 8.7 47.6 82 5.8 42.5
00:30 1019 30.09 848 25.04 8.7 47.6 81 5.7 42.2
00:35 1019 30.09 848 25.04 8.6 47.4 80 5.4 41.7
00:40 1019 30.09 848 25.04 8.5 47.3 80 5.3 41.6
00:45 1019 30.09 848 25.04 8.4 47.1 79 5.1 41.1
00:50 1019 30.09 849 25.07 8.3 47 80 5.1 41.2
00:55 1019 30.09 848 25.04 8.2 46.8 80 5.1 41.2
01:00 1019 30.09 848 25.04 8.2 46.7 82 5.2 41.4
01:05 1019 30.09 848 25.04 8 46.4 82 5.1 41.2
01:10 1019 30.09 848 25.04 7.9 46.2 84 5.3 41.5
01:15 1019 30.09 848 25.04 7.9 46.1 82 5.1 41.1
01:20 1019 30.09 848 25.04 7.9 46.2 83 5.2 41.3
01:25 1019 30.09 848 25.04 7.8 46.1 83 5.1 41.2
01:30 1019 30.09 848 25.04 7.9 46.1 82 5 41
01:35 1019 30.09 849 25.07 7.9 46.2 82 4.9 40.9
01:40 1019 30.09 849 25.07 7.9 46.1 83 5.1 41.2
01:45 1019 30.09 849 25.07 7.8 46.1 83 5.1 41.1
01:50 1020 30.12 849 25.07 7.8 46 83 5.1 41.2
01:55 1020 30.12 849 25.07 7.8 46 83 5.1 41.2
02:00 1020 30.12 849 25.07 7.7 45.9 85 5.3 41.6
02:05 1020 30.12 849 25.07 7.6 45.7 85 5.3 41.5
02:10 1020 30.12 849 25.07 7.6 45.6 86 5.5 41.8
02:15 1020 30.12 849 25.07 7.5 45.5 87 5.6 42
02:20 1020 30.12 849 25.07 7.4 45.3 89 5.6 42.1
02:25 1020 30.12 849 25.07 7.3 45.1 89 5.6 42.1
02:30 1020 30.12 849 25.07 7.3 45.1 90 5.7 42.3
02:35 1020 30.12 849 25.07 7.3 45.1 90 5.7 42.3
02:40 1020 30.12 849 25.07 7.2 45 91 5.8 42.5
02:45 1020 30.12 849 25.07 7.2 44.9 91 5.8 42.4
02:50 1020 30.12 849 25.07 7.2 44.9 92 5.9 42.6
02:55 1020 30.12 850 25.1 7.1 44.8 91 5.8 42.4
03:00 1020 30.12 850 25.1 7.1 44.8 92 5.9 42.6
03:05 1020 30.12 850 25.1 7.2 45 93 6.1 43
03:10 1021 30.15 850 25.1 7.2 45 93 6.2 43.1
03:15 1021 30.15 850 25.1 7.3 45.1 93 6.3 43.3
03:20 1021 30.15 850 25.1 7.2 45 94 6.3 43.3
03:25 1021 30.15 850 25.1 7.2 44.9 94 6.3 43.4
03:30 1021 30.15 850 25.1 7.2 45 95 6.5 43.6
03:35 1021 30.15 850 25.1 7.3 45.1 95 6.5 43.7
03:40 1021 30.15 850 25.1 7.3 45.1 95 6.6 43.8
03:45 1021 30.15 850 25.1 7.2 45 96 6.6 43.8
03:50 1021 30.15 850 25.1 7.1 44.8 96 6.5 43.7
03:55 1021 30.15 850 25.1 7.1 44.9 96 6.5 43.7
04:00 1021 30.15 850 25.1 7.1 44.7 96 6.4 43.6
04:05 1021 30.15 850 25.1 6.9 44.5 96 6.3 43.4
04:10 1021 30.15 850 25.1 6.9 44.5 96 6.4 43.5
04:15 1021 30.15 850 25.1 6.9 44.5 96 6.3 43.4
04:20 1021 30.15 850 25.1 6.8 44.3 96 6.2 43.2
04:25 1021 30.15 850 25.1 6.8 44.3 95 6.2 43.1
04:30 1021 30.15 850 25.1 6.8 44.2 95 6.1 42.9
04:35 1021 30.15 850 25.1 6.8 44.2 95 6 42.8
04:40 1021 30.15 850 25.1 6.8 44.2 95 6 42.8
04:45 1021 30.15 850 25.1 6.8 44.2 94 6 42.7
04:50 1021 30.15 850 25.1 6.8 44.2 94 5.9 42.7
04:55 1021 30.15 850 25.1 6.8 44.3 94 5.9 42.6
05:00 1021 30.15 850 25.1 6.8 44.3 93 5.8 42.5
05:05 1021 30.15 850 25.1 6.9 44.4 94 5.9 42.7
05:10 1021 30.15 851 25.13 6.9 44.4 94 6 42.8
05:15 1021 30.15 851 25.13 6.8 44.3 94 6 42.8
05:20 1021 30.15 851 25.13 6.8 44.3 95 6.1 42.9
05:25 1021 30.15 851 25.13 6.9 44.4 94 6 42.9
05:30 1021 30.15 851 25.13 6.9 44.4 95 6.1 43
05:35 1022 30.18 851 25.13 6.8 44.3 95 6.1 43
05:40 1022 30.18 851 25.13 6.8 44.2 95 6 42.8
05:45 1022 30.18 851 25.13 6.8 44.3 95 6 42.8
05:50 1022 30.18 851 25.13 6.9 44.3 95 6.1 42.9
05:55 1022 30.18 851 25.13 6.9 44.3 94 6 42.8
06:00 1022 30.18 851 25.13 6.9 44.4 94 6 42.8
06:05 1022 30.18 851 25.13 6.9 44.5 94 6 42.8
06:10 1022 30.18 851 25.13 6.9 44.5 94 6 42.8
06:15 1022 30.18 851 25.13 7 44.5 94 6 42.8
06:20 1022 30.18 851 25.13 7 44.6 94 6 42.8
06:25 1022 30.18 851 25.13 7 44.6 94 6 42.9
06:30 1022 30.18 851 25.13 7 44.7 93 6 42.9
06:35 1022 30.18 851 25.13 7.1 44.7 94 6.1 43
06:40 1022 30.18 851 25.13 7.1 44.8 94 6.2 43.1
06:45 1022 30.18 851 25.13 7.1 44.8 94 6.2 43.1
06:50 1022 30.18 851 25.13 7.1 44.7 94 6.1 43
06:55 1022 30.18 851 25.13 7 44.6 92 5.9 42.5
07:00 1022 30.18 851 25.13 7 44.5 92 5.7 42.3
07:05 1022 30.18 851 25.13 7 44.6 92 5.8 42.4
07:10 1022 30.18 851 25.13 6.9 44.5 91 5.6 42.1
07:15 1022 30.18 851 25.13 6.9 44.5 90 5.5 41.8
07:20 1022 30.18 851 25.13 6.9 44.4 91 5.4 41.8
07:25 1022 30.18 852 25.16 6.9 44.4 91 5.4 41.8
07:30 1022 30.18 852 25.16 6.9 44.4 91 5.5 41.9
07:35 1022 30.18 852 25.16 6.9 44.4 91 5.5 41.8
07:40 1023 30.21 852 25.16 6.9 44.4 90 5.4 41.7
07:45 1023 30.21 852 25.16 6.9 44.3 90 5.3 41.6
07:50 1023 30.21 852 25.16 6.9 44.4 90 5.5 41.8
07:55 1023 30.21 852 25.16 6.9 44.5 90 5.4 41.8
08:00 1023 30.21 852 25.16 6.9 44.4 90 5.3 41.6
08:05 1023 30.21 852 25.16 6.9 44.5 89 5.3 41.6
08:10 1023 30.21 852 25.16 6.9 44.4 89 5.3 41.5
08:15 1023 30.21 852 25.16 6.9 44.4 90 5.3 41.6
08:20 1023 30.21 852 25.16 6.9 44.4 89 5.2 41.4
08:25 1023 30.21 852 25.16 7 44.6 88 5.1 41.2
08:30 1023 30.21 852 25.16 7 44.6 88 5.1 41.2
08:35 1023 30.21 852 25.16 7 44.7 87 5.1 41.1
08:40 1023 30.21 852 25.16 7 44.7 86 4.9 40.8
08:45 1023 30.21 852 25.16 7.1 44.8 87 5.1 41.2
08:50 1023 30.21 852 25.16 7.1 44.8 86 5 40.9
08:55 1023 30.21 852 25.16 7.1 44.9 87 5.1 41.2
09:00 1023 30.21 852 25.16 7.2 44.9 86 5 41.1
09:05 1023 30.21 852 25.16 7.2 45 86 5.1 41.1
09:10 1023 30.21 852 25.16 7.3 45.1 86 5 41
09:15 1023 30.21 853 25.19 7.3 45.1 85 5 41
09:20 1023 30.21 853 25.19 7.4 45.3 86 5.2 41.3
09:25 1023 30.21 853 25.19 7.4 45.4 86 5.2 41.3
09:30 1024 30.24 853 25.19 7.5 45.5 84 4.9 40.9
09:35 1024 30.24 853 25.19 7.5 45.5 84 5 40.9
09:40 1024 30.24 853 25.19 7.5 45.6 84 4.9 40.9
09:45 1024 30.24 853 25.19 7.6 45.6 83 5 40.9
09:50 1024 30.24 853 25.19 7.6 45.8 85 5.2 41.4
09:55 1024 30.24 853 25.19 7.7 45.8 84 5.2 41.3
10:00 1024 30.24 853 25.19 7.7 45.9 84 5.1 41.2
10:05 1024 30.24 853 25.19 7.8 46 82 5 41
10:10 1024 30.24 853 25.19 7.9 46.2 84 5.4 41.7
10:15 1024 30.24 853 25.19 8.1 46.5 83 5.4 41.8
10:20 1024 30.24 853 25.19 8.2 46.7 83 5.4 41.7
10:25 1024 30.24 853 25.19 8.3 46.9 82 5.4 41.8
10:30 1024 30.24 853 25.19 8.4 47 82 5.4 41.8
10:35 1024 30.24 853 25.19 8.5 47.2 82 5.5 42
10:40 1024 30.24 853 25.19 8.6 47.5 82 5.6 42.1
10:45 1024 30.24 853 25.19 8.6 47.5 81 5.6 42
10:50 1024 30.24 853 25.19 8.6 47.5 81 5.6 42.1
10:55 1024 30.24 853 25.19 8.7 47.7 82 5.9 42.6
11:00 1024 30.24 853 25.19 8.8 47.9 81 5.8 42.4
11:05 1024 30.24 853 25.19 9 48.3 82 6.2 43.2
11:10 1024 30.24 853 25.19 9 48.2 80 5.8 42.4
11:15 1024 30.24 853 25.19 9 48.2 80 5.8 42.5
11:20 1024 30.24 853 25.19 9.2 48.5 80 5.9 42.6
11:25 1024 30.24 853 25.19 9.3 48.7 79 5.9 42.7
11:30 1024 30.24 853 25.19 9.3 48.7 80 6.1 42.9
11:35 1024 30.24 853 25.19 9.3 48.8 79 5.9 42.7
11:40 1024 30.24 853 25.19 9.4 48.9 80 6.1 42.9
11:45 1024 30.24 853 25.19 9.7 49.5 79 6.3 43.4
11:50 1024 30.24 853 25.19 10.2 50.4 77 6.4 43.5
11:55 1024 30.24 853 25.19 10.4 50.7 77 6.5 43.7
12:00 1024 30.24 853 25.19 10.5 50.8 78 6.8 44.3
12:05 1024 30.24 853 25.19 11 51.7 75 6.8 44.2
12:10 1024 30.24 853 25.19 11.6 52.9 71 6.6 44
12:15 1024 30.24 853 25.19 11.7 53.1 71 6.6 44
12:20 1024 30.24 853 25.19 12.1 53.7 68 6.5 43.6
12:25 1024 30.24 853 25.19 12.6 54.6 65 6.3 43.3
12:30 1024 30.24 853 25.19 12.8 55.1 63 6 42.7
12:35 1024 30.24 853 25.19 12.5 54.4 66 6.4 43.4
12:40 1024 30.24 853 25.19 12.7 54.9 63 5.8 42.5
12:45 1024 30.24 853 25.19 13 55.3 64 6.2 43.2
12:50 1024 30.24 853 25.19 12.8 55.1 65 6.4 43.5
12:55 1024 30.24 853 25.19 13.3 55.9 61 6 42.7
13:00 1024 30.24 853 25.19 13.5 56.3 61 6.3 43.4
13:05 1024 30.24 853 25.19 13.6 56.4 60 6.1 43
13:10 1024 30.24 853 25.19 13.9 57 58 5.9 42.6
13:15 1024 30.24 853 25.19 13.7 56.6 60 6.2 43.1
13:20 1024 30.24 853 25.19 13.9 57 59 6.1 43
13:25 1024 30.24 853 25.19 14.2 57.5 55 5.4 41.7
13:30 1024 30.24 853 25.19 14.4 57.9 52 4.8 40.7
13:35 1024 30.24 853 25.19 14.4 57.9 57 6 42.8
13:40 1024 30.24 853 25.19 14.8 58.6 56 6.3 43.3
13:45 1024 30.24 853 25.19 14.8 58.7 55 6 42.8
13:50 1024 30.24 853 25.19 15.1 59.3 55 6.4 43.4
13:55 1024 30.24 853 25.19 15.2 59.3 52 5.5 41.9
14:00 1023 30.21 853 25.19 15.3 59.5 54 6.2 43.1
14:05 1023 30.21 853 25.19 14.9 58.8 56 6.2 43.2
14:10 1023 30.21 853 25.19 14.7 58.4 57 6.3 43.4
14:15 1023 30.21 853 25.19 14.7 58.5 58 6.6 43.8
14:20 1023 30.21 853 25.19 14.2 57.6 60 6.7 44.1
14:25 1023 30.21 853 25.19 14 57.2 61 6.7 44.1
14:30 1023 30.21 853 25.19 14 57.2 60 6.4 43.6
14:35 1023 30.21 853 25.19 14 57.1 59 6.1 42.9
14:40 1023 30.21 853 25.19 14.6 58.3 56 6 42.9
14:45 1023 30.21 853 25.19 14.9 58.9 57 6.5 43.7
14:50 1023 30.21 853 25.19 15.2 59.4 56 6.5 43.7
14:55 1023 30.21 852 25.16 15 59 57 6.7 44
15:00 1023 30.21 852 25.16 14.9 58.9 57 6.6 43.8
15:05 1023 30.21 852 25.16 14.8 58.6 57 6.4 43.5
15:10 1023 30.21 852 25.16 14.9 58.9 55 6 42.8
15:15 1023 30.21 852 25.16 15 59.1 54 6 42.8
15:20 1023 30.21 852 25.16 15.4 59.6 52 5.6 42.2
15:25 1023 30.21 852 25.16 15.8 60.4 53 6.3 43.3
15:30 1023 30.21 852 25.16 15.3 59.5 55 6.3 43.4
15:35 1023 30.21 852 25.16 15.5 59.9 54 6.3 43.3
15:40 1023 30.21 852 25.16 15.7 60.2 52 5.9 42.7
15:45 1023 30.21 852 25.16 15.9 60.6 51 6 42.7
15:50 1023 30.21 852 25.16 15.7 60.2 53 6.3 43.3
15:55 1023 30.21 852 25.16 15.9 60.6 51 6 42.7
16:00 1023 30.21 852 25.16 15.8 60.5 52 6.1 43
16:05 1023 30.21 852 25.16 15.6 60.1 54 6.3 43.4
16:10 1023 30.21 852 25.16 15.6 60.2 54 6.3 43.4
16:15 1023 30.21 852 25.16 15.6 60 53 6.1 43
16:20 1023 30.21 852 25.16 15.5 59.8 53 6.1 43
16:25 1023 30.21 852 25.16 15.5 59.9 53 6 42.9
16:30 1023 30.21 852 25.16 15.3 59.5 54 6.1 43
16:35 1023 30.21 852 25.16 15.4 59.6 53 6 42.9
16:40 1023 30.21 852 25.16 15.6 60 53 6.2 43.1
16:45 1023 30.21 852 25.16 15.4 59.7 53 5.9 42.5
16:50 1023 30.21 852 25.16 15.2 59.3 54 6.1 43
16:55 1023 30.21 852 25.16 14.9 58.8 55 5.9 42.6
17:00 1023 30.21 852 25.16 14.9 58.8 54 5.7 42.2
17:05 1023 30.21 852 25.16 14.8 58.6 54 5.8 42.4
17:10 1023 30.21 852 25.16 14.8 58.6 55 5.8 42.5
17:15 1023 30.21 852 25.16 14.6 58.2 56 6 42.7
17:20 1023 30.21 852 25.16 14.6 58.2 56 6 42.8
17:25 1023 30.21 852 25.16 14.5 58.1 57 6.1 43.1
17:30 1023 30.21 852 25.16 14.4 57.8 58 6.2 43.1
17:35 1023 30.21 852 25.16 14.5 58 58 6.3 43.4
17:40 1023 30.21 852 25.16 14.3 57.7 59 6.3 43.4
17:45 1023 30.21 852 25.16 14.2 57.5 59 6.2 43.2
17:50 1023 30.21 852 25.16 14.1 57.3 59 6.4 43.5
17:55 1023 30.21 852 25.16 13.9 57 61 6.5 43.6
18:00 1023 30.21 852 25.16 13.6 56.4 61 6.3 43.4
18:05 1023 30.21 852 25.16 13.4 56 62 6.2 43.2
18:10 1023 30.21 852 25.16 13.1 55.7 63 6.2 43.2
18:15 1023 30.21 852 25.16 13 55.3 63 6.1 43
18:20 1023 30.21 852 25.16 12.9 55.2 63 6.2 43.1
18:25 1023 30.21 852 25.16 12.8 55 64 6.2 43.2
18:30 1023 30.21 852 25.16 12.6 54.6 65 6.1 43.1
18:35 1023 30.21 852 25.16 12.4 54.4 65 6.1 42.9
18:40 1023 30.21 852 25.16 12.2 54 66 6.1 42.9
18:45 1023 30.21 852 25.16 12.1 53.7 67 6.1 43
18:50 1023 30.21 852 25.16 11.9 53.5 67 6 42.8
18:55 1023 30.21 852 25.16 11.8 53.3 67 6 42.8
19:00 1023 30.21 852 25.16 11.7 53.1 68 6.1 42.9
19:05 1023 30.21 852 25.16 11.6 52.9 69 6.1 43
19:10 1023 30.21 852 25.16 11.6 52.8 69 6.2 43.2
19:15 1023 30.21 852 25.16 11.5 52.7 70 6.2 43.1
19:20 1023 30.21 852 25.16 11.5 52.6 70 6.2 43.1
19:25 1023 30.21 852 25.16 11.3 52.4 71 6.3 43.3
19:30 1023 30.21 852 25.16 11.2 52.2 71 6.2 43.2
19:35 1023 30.21 852 25.16 11.1 52 72 6.2 43.2
19:40 1023 30.21 852 25.16 11 51.9 73 6.3 43.4
19:45 1023 30.21 852 25.16 10.9 51.6 73 6.3 43.4
19:50 1023 30.21 852 25.16 10.7 51.3 74 6.3 43.4
19:55 1023 30.21 853 25.19 10.7 51.2 74 6.2 43.1
20:00 1023 30.21 853 25.19 10.6 51.1 74 6.3 43.3
20:05 1023 30.21 853 25.19 10.5 51 74 6 42.9
20:10 1023 30.21 853 25.19 10.5 50.9 74 6.1 42.9
20:15 1024 30.24 853 25.19 10.4 50.7 74 6.1 42.9
20:20 1023 30.21 853 25.19 10.3 50.5 75 6.1 43
20:25 1023 30.21 853 25.19 10.1 50.1 76 6.1 42.9
20:30 1024 30.24 853 25.19 10 49.9 76 6 42.8
20:35 1023 30.21 853 25.19 9.9 49.7 77 6.1 43
20:40 1024 30.24 853 25.19 9.7 49.5 77 6 42.7
20:45 1024 30.24 853 25.19 9.7 49.4 78 6 42.9
20:50 1024 30.24 853 25.19 9.6 49.3 78 6 42.7
20:55 1024 30.24 853 25.19 9.5 49.1 79 6 42.8
21:00 1024 30.24 853 25.19 9.4 48.9 79 6 42.8
21:05 1024 30.24 853 25.19 9.3 48.8 79 5.9 42.7
21:10 1024 30.24 853 25.19 9.2 48.6 80 5.9 42.7
21:15 1024 30.24 853 25.19 9.1 48.4 80 5.8 42.5
21:20 1024 30.24 853 25.19 9.2 48.5 80 5.9 42.5
21:25 1024 30.24 853 25.19 9 48.3 80 5.9 42.6
21:30 1024 30.24 853 25.19 9 48.1 81 5.9 42.5
21:35 1024 30.24 853 25.19 8.9 47.9 81 5.8 42.5
21:40 1024 30.24 853 25.19 8.8 47.8 82 5.8 42.5
21:45 1024 30.24 853 25.19 8.7 47.6 82 5.8 42.4
21:50 1024 30.24 853 25.19 8.7 47.6 82 5.8 42.5
21:55 1024 30.24 853 25.19 8.7 47.6 82 5.7 42.3
22:00 1024 30.24 853 25.19 8.7 47.6 82 5.8 42.4
22:05 1024 30.24 853 25.19 8.5 47.3 83 5.7 42.3
22:10 1024 30.24 853 25.19 8.5 47.3 83 5.7 42.3
22:15 1024 30.24 853 25.19 8.3 47 83 5.7 42.3
22:20 1024 30.24 853 25.19 8.3 46.9 84 5.6 42.1
22:25 1024 30.24 853 25.19 8.2 46.7 84 5.7 42.2
22:30 1024 30.24 853 25.19 8.1 46.6 84 5.6 42.1
22:35 1024 30.24 853 25.19 8 46.4 85 5.6 42.1
22:40 1024 30.24 853 25.19 7.9 46.2 85 5.6 42.1
22:45 1024 30.24 853 25.19 7.8 46.1 86 5.6 42.1
22:50 1024 30.24 853 25.19 7.7 45.8 87 5.6 42
22:55 1024 30.24 853 25.19 7.6 45.6 87 5.5 41.9
23:00 1024 30.24 853 25.19 7.5 45.4 87 5.5 41.9
23:05 1024 30.24 853 25.19 7.4 45.3 88 5.5 41.9
23:10 1024 30.24 853 25.19 7.4 45.3 88 5.5 41.9
23:15 1024 30.24 853 25.19 7.3 45.1 88 5.4 41.7
23:20 1024 30.24 853 25.19 7.3 45.1 88 5.4 41.7
23:25 1024 30.24 853 25.19 7.3 45.1 88 5.4 41.8
23:30 1023 30.21 853 25.19 7.1 44.8 88 5.3 41.6
23:35 1024 30.24 853 25.19 7.1 44.8 89 5.3 41.6
23:40 1023 30.21 853 25.19 7.1 44.7 89 5.4 41.8
23:45 1023 30.21 853 25.19 6.9 44.5 89 5.3 41.6
23:50 1024 30.24 853 25.19 6.9 44.4 90 5.4 41.7
23:55 1024 30.24 853 25.19 6.8 44.3 90 5.3 41.6
24:00 1023 30.21 853 25.19 6.8 44.2 91 5.4 41.6